Rotan, Texas
Current Conditions -  °F | °C
As of 8:15 AM on Thursday 30 Oct 2014 (Local Time) from KSWW Reporting Station
Clear Clear  
Wind Chill: 58°   Ceiling: Unl
Heat Index: 58°   Visibility: 10mi
Dew Point: 56°   Wind: 10mph
Humidity: 91%   Direction: 170°S
Pressure: 30.14"   Gusts: NA
Location:  32.85°N, 100.47°W
Report Text: KSWW 301315Z AUTO 17009KT 10SM CLR 15/13 A3014 RMK AO2 T01470133
Loading
Personal Weather Stations






























Interactive Weather Map
Tropical Storm Tracking
New forecast layout! Learn more

10-Day Weather Forecast

Advertisements
Track Severe Weather on mobile